createdAt,value
2017-08-01T00:00:26.222Z,6.93
2017-08-01T00:02:53.749Z,6.37
2017-08-01T00:05:21.271Z,6.10
2017-08-01T00:07:48.782Z,6.60
2017-08-01T00:10:16.301Z,5.93
2017-08-01T00:12:43.845Z,6.27
2017-08-01T00:15:11.358Z,6.40
2017-08-01T00:17:38.889Z,6.77
2017-08-01T00:20:07.174Z,6.63
2017-08-01T00:22:34.700Z,6.07
2017-08-01T00:25:02.246Z,6.20
2017-08-01T00:27:29.786Z,7.50
2017-08-01T00:29:57.297Z,6.87
2017-08-01T00:32:25.585Z,6.23
2017-08-01T00:34:53.107Z,7.83
2017-08-01T00:37:20.653Z,6.80
2017-08-01T00:39:48.169Z,6.90
2017-08-01T00:42:15.748Z,7.10
2017-08-01T00:44:43.265Z,6.43
2017-08-01T00:47:11.554Z,7.33
2017-08-01T00:49:39.100Z,7.10
2017-08-01T00:52:07.382Z,6.37
2017-08-01T00:54:35.667Z,7.27
2017-08-01T00:57:03.194Z,7.27
2017-08-01T00:59:30.710Z,6.70
2017-08-01T01:01:58.251Z,7.30
2017-08-01T01:04:25.770Z,5.83
2017-08-01T01:06:53.288Z,6.93
2017-08-01T01:09:20.811Z,7.30
2017-08-01T01:11:49.088Z,5.90
2017-08-01T01:14:16.625Z,7.10
2017-08-01T01:16:44.141Z,7.83
2017-08-01T01:19:11.669Z,6.60
2017-08-01T01:21:39.193Z,6.60
2017-08-01T01:24:06.707Z,6.53
2017-08-01T01:26:34.254Z,6.73
2017-08-01T01:29:01.786Z,6.77
2017-08-01T01:31:30.105Z,6.20
2017-08-01T01:33:57.638Z,7.17
2017-08-01T01:36:25.173Z,6.80
2017-08-01T01:38:53.493Z,7.63
2017-08-01T01:41:21.015Z,6.83
2017-08-01T01:43:49.293Z,6.70
2017-08-01T01:46:17.582Z,6.87
2017-08-01T01:48:45.129Z,6.90
2017-08-01T01:51:13.439Z,6.67
2017-08-01T01:53:40.957Z,7.03
2017-08-01T01:56:09.242Z,7.07
2017-08-01T01:58:36.761Z,7.47
2017-08-01T02:01:04.278Z,7.73
2017-08-01T02:03:31.821Z,6.43
2017-08-01T02:05:59.345Z,7.63
2017-08-01T02:08:26.869Z,6.87
2017-08-01T02:10:54.385Z,6.40
2017-08-01T02:13:22.669Z,7.20
2017-08-01T02:15:50.974Z,6.70
2017-08-01T02:18:18.495Z,7.43
2017-08-01T02:20:46.786Z,7.57
2017-08-01T02:23:14.309Z,7.60
2017-08-01T02:25:41.825Z,7.37
2017-08-01T02:28:09.593Z,7.40
2017-08-01T02:30:37.105Z,8.07
2017-08-01T02:33:05.396Z,7.93
2017-08-01T02:35:32.917Z,9.90
2017-08-01T02:38:00.429Z,7.53
2017-08-01T02:40:27.973Z,7.47
2017-08-01T02:42:55.491Z,7.80
2017-08-01T02:45:23.015Z,9.00
2017-08-01T02:47:50.537Z,9.03
2017-08-01T02:50:18.824Z,9.27
2017-08-01T02:52:46.372Z,9.10
2017-08-01T02:55:14.657Z,7.17
2017-08-01T02:57:42.938Z,7.60
2017-08-01T03:00:10.470Z,7.57
2017-08-01T03:02:37.989Z,8.13
2017-08-01T03:05:05.538Z,7.70
2017-08-01T03:07:33.053Z,10.00
2017-08-01T03:10:01.338Z,7.60
2017-08-01T03:12:29.720Z,8.57
2017-08-01T03:14:57.997Z,7.13
2017-08-01T03:17:26.310Z,8.60
2017-08-01T03:19:53.824Z,8.23
2017-08-01T03:22:22.202Z,8.50
2017-08-01T03:24:50.494Z,8.30
2017-08-01T03:27:18.021Z,9.83
2017-08-01T03:29:45.574Z,9.40
2017-08-01T03:32:13.096Z,8.77
2017-08-01T03:34:40.613Z,8.57
2017-08-01T03:37:08.899Z,9.20
2017-08-01T03:39:36.414Z,8.37
2017-08-01T03:42:03.953Z,9.37
2017-08-01T03:44:31.474Z,8.83
2017-08-01T03:46:58.998Z,9.07
2017-08-01T03:49:26.516Z,8.40
2017-08-01T03:51:54.037Z,8.90
2017-08-01T03:54:22.341Z,8.13
2017-08-01T03:56:49.858Z,8.10
2017-08-01T03:59:17.375Z,8.20
2017-08-01T04:01:44.901Z,8.60
2017-08-01T04:04:12.426Z,8.70
2017-08-01T04:06:39.966Z,8.67
2017-08-01T04:09:07.484Z,9.17
2017-08-01T04:11:35.006Z,8.33
2017-08-01T04:14:02.525Z,9.10
2017-08-01T04:16:30.039Z,8.93
2017-08-01T04:18:58.347Z,8.57
2017-08-01T04:21:25.857Z,8.13
2017-08-01T04:23:53.376Z,7.70
2017-08-01T04:26:20.893Z,7.20
2017-08-01T04:28:49.187Z,9.43
2017-08-01T04:31:16.729Z,7.87
2017-08-01T04:33:45.021Z,7.40
2017-08-01T04:36:12.543Z,8.70
2017-08-01T04:38:40.114Z,8.10
2017-08-01T04:41:08.403Z,8.50
2017-08-01T04:43:35.946Z,7.60
2017-08-01T04:46:04.225Z,9.43
2017-08-01T04:48:32.511Z,7.97
2017-08-01T04:51:00.790Z,8.20
2017-08-01T04:53:29.076Z,8.60
2017-08-01T04:55:56.625Z,8.83
2017-08-01T04:58:24.145Z,8.40
2017-08-01T05:00:51.657Z,8.60
2017-08-01T05:03:19.181Z,8.40
2017-08-01T05:05:47.470Z,8.07
2017-08-01T05:08:15.790Z,8.20
2017-08-01T05:10:43.329Z,8.80
2017-08-01T05:13:10.853Z,9.27
2017-08-01T05:15:39.137Z,9.23
2017-08-01T05:18:07.426Z,8.93
2017-08-01T05:20:34.990Z,8.00
2017-08-01T05:23:02.513Z,9.17
2017-08-01T05:25:30.034Z,9.67
2017-08-01T05:27:57.553Z,9.07
2017-08-01T05:30:25.833Z,9.60
2017-08-01T05:32:53.374Z,8.77
2017-08-01T05:35:21.665Z,9.13
2017-08-01T05:37:49.945Z,9.00
2017-08-01T05:40:17.530Z,7.87
2017-08-01T05:42:45.058Z,9.17
2017-08-01T05:45:13.365Z,8.33
2017-08-01T05:47:40.886Z,8.27
2017-08-01T05:50:09.174Z,8.77
2017-08-01T05:52:36.699Z,9.07
2017-08-01T05:55:04.219Z,9.50
2017-08-01T05:57:31.786Z,9.33
2017-08-01T05:59:59.306Z,7.90
2017-08-01T06:02:26.818Z,8.73
2017-08-01T06:04:54.338Z,8.40
2017-08-01T06:07:21.869Z,9.50
2017-08-01T06:09:50.190Z,8.37
2017-08-01T06:12:17.721Z,14.30
2017-08-01T06:14:45.246Z,9.17
2017-08-01T06:17:12.765Z,7.47
2017-08-01T06:19:40.288Z,8.43
2017-08-01T06:22:07.830Z,8.40
2017-08-01T06:24:36.121Z,8.67
2017-08-01T06:27:04.416Z,9.20
2017-08-01T06:29:31.932Z,8.67
2017-08-01T06:31:59.453Z,8.70
2017-08-01T06:34:26.998Z,8.00
2017-08-01T06:36:54.515Z,7.83
2017-08-01T06:39:22.806Z,8.10
2017-08-01T06:41:51.085Z,8.27
2017-08-01T06:44:18.601Z,7.83
2017-08-01T06:46:46.141Z,8.07
2017-08-01T06:49:13.661Z,8.23
2017-08-01T06:51:41.178Z,7.17
2017-08-01T06:54:08.706Z,8.40
2017-08-01T06:56:36.234Z,8.40
2017-08-01T06:59:04.562Z,7.43
2017-08-01T07:01:32.077Z,8.37
2017-08-01T07:03:59.593Z,9.13
2017-08-01T07:06:27.105Z,7.27
2017-08-01T07:08:54.618Z,6.77
2017-08-01T07:11:22.170Z,7.37
2017-08-01T07:13:49.688Z,6.80
2017-08-01T07:16:17.213Z,7.90
2017-08-01T07:18:45.494Z,7.90
2017-08-01T07:21:13.774Z,6.73
2017-08-01T07:23:41.469Z,6.23
2017-08-01T07:26:08.990Z,6.73
2017-08-01T07:28:37.265Z,7.80
2017-08-01T07:31:04.785Z,7.87
2017-08-01T07:33:32.302Z,7.10
2017-08-01T07:35:59.854Z,6.60
2017-08-01T07:38:27.373Z,7.43
2017-08-01T07:40:54.900Z,7.40
2017-08-01T07:43:22.422Z,7.27
2017-08-01T07:45:49.943Z,7.00
2017-08-01T07:48:17.490Z,6.00
2017-08-01T07:50:45.010Z,7.10
2017-08-01T07:53:12.530Z,6.70
2017-08-01T07:55:40.821Z,6.33
2017-08-01T07:58:09.110Z,6.70
2017-08-01T08:00:36.661Z,6.40
2017-08-01T08:03:04.189Z,6.63
2017-08-01T08:05:31.715Z,6.00
2017-08-01T08:07:59.242Z,6.00
2017-08-01T08:10:26.762Z,5.83
2017-08-01T08:12:54.320Z,5.60
2017-08-01T08:15:21.942Z,6.20
2017-08-01T08:17:49.461Z,7.20
2017-08-01T08:20:17.739Z,7.67
2017-08-01T08:22:46.026Z,6.67
2017-08-01T08:25:13.581Z,5.67
2017-08-01T08:27:41.861Z,6.87
2017-08-01T08:30:09.377Z,6.53
2017-08-01T08:32:36.889Z,6.83
2017-08-01T08:35:04.417Z,5.57
2017-08-01T08:37:32.731Z,6.50
2017-08-01T08:40:00.262Z,6.83
2017-08-01T08:42:28.547Z,7.00
2017-08-01T08:44:56.065Z,6.77
2017-08-01T08:47:23.586Z,7.00
2017-08-01T08:49:51.133Z,7.73
2017-08-01T08:52:18.684Z,7.93
2017-08-01T08:54:46.212Z,7.77
2017-08-01T08:57:13.725Z,6.23
2017-08-01T08:59:41.246Z,6.77
2017-08-01T09:02:09.556Z,7.20
2017-08-01T09:04:37.083Z,10.13
2017-08-01T09:07:05.370Z,7.73
2017-08-01T09:09:32.894Z,8.10
2017-08-01T09:12:01.206Z,9.90
2017-08-01T09:14:28.746Z,8.23
2017-08-01T09:16:57.028Z,7.70
2017-08-01T09:19:25.320Z,8.57
2017-08-01T09:21:52.858Z,7.60
2017-08-01T09:24:21.151Z,7.13
2017-08-01T09:26:48.691Z,6.80
2017-08-01T09:29:16.973Z,6.67
2017-08-01T09:31:45.261Z,8.50
2017-08-01T09:34:12.805Z,8.03
2017-08-01T09:36:41.093Z,14.97
2017-08-01T09:39:09.402Z,8.20
2017-08-01T09:41:36.929Z,16.57
2017-08-01T09:44:04.457Z,9.97
2017-08-01T09:46:31.982Z,10.03
2017-08-01T09:48:59.495Z,7.93
2017-08-01T09:51:28.606Z,7.97
2017-08-01T09:53:56.142Z,8.10
2017-08-01T09:56:24.426Z,8.60
2017-08-01T09:58:52.715Z,7.63
2017-08-01T10:01:20.238Z,9.50
2017-08-01T10:03:47.789Z,10.57
2017-08-01T10:06:15.311Z,6.87
2017-08-01T10:08:42.826Z,7.43
2017-08-01T10:11:11.121Z,6.57
2017-08-01T10:13:38.633Z,6.40
2017-08-01T10:16:06.177Z,7.30
2017-08-01T10:18:33.701Z,6.53
2017-08-01T10:21:01.234Z,6.53
2017-08-01T10:23:29.523Z,6.50
2017-08-01T10:25:57.801Z,5.80
2017-08-01T10:28:26.110Z,6.20
2017-08-01T10:30:53.634Z,5.67
2017-08-01T10:33:21.918Z,5.67
2017-08-01T10:35:49.452Z,5.73
2017-08-01T10:38:17.739Z,6.00
2017-08-01T10:40:46.052Z,7.00
2017-08-01T10:43:13.566Z,5.80
2017-08-01T10:45:41.893Z,6.47
2017-08-01T10:48:09.410Z,6.30
2017-08-01T10:50:37.693Z,6.70
2017-08-01T10:53:05.246Z,5.47
2017-08-01T10:55:33.535Z,6.90
2017-08-01T10:58:01.070Z,5.10
2017-08-01T11:00:29.358Z,5.40
2017-08-01T11:02:57.739Z,5.57
2017-08-01T11:05:26.054Z,6.10
2017-08-01T11:07:53.576Z,5.20
2017-08-01T11:10:21.099Z,5.80
2017-08-01T11:12:48.614Z,5.90
2017-08-01T11:15:16.133Z,5.50
2017-08-01T11:17:44.445Z,5.97
2017-08-01T11:20:11.970Z,5.43
2017-08-01T11:22:40.263Z,5.53
2017-08-01T11:25:07.781Z,5.83
2017-08-01T11:27:35.298Z,6.20
2017-08-01T11:30:02.842Z,6.57
2017-08-01T11:32:30.413Z,5.80
2017-08-01T11:34:57.929Z,5.83
2017-08-01T11:37:25.445Z,5.17
2017-08-01T11:39:52.965Z,5.03
2017-08-01T11:42:21.277Z,5.43
2017-08-01T11:44:48.794Z,5.20
2017-08-01T11:47:17.084Z,4.87
2017-08-01T11:49:44.605Z,4.80
2017-08-01T11:52:12.118Z,4.27
2017-08-01T11:54:39.670Z,5.13
2017-08-01T11:57:07.194Z,4.80
2017-08-01T11:59:34.707Z,4.90
2017-08-01T12:02:02.226Z,4.60
2017-08-01T12:04:30.512Z,4.33
2017-08-01T12:06:58.058Z,4.10
2017-08-01T12:09:26.337Z,5.03
2017-08-01T12:11:54.638Z,4.80
2017-08-01T12:14:22.154Z,6.10
2017-08-01T12:16:49.675Z,4.47
2017-08-01T12:19:17.225Z,4.73
2017-08-01T12:21:44.758Z,4.33
2017-08-01T12:24:12.285Z,5.43
2017-08-01T12:26:39.809Z,4.67
2017-08-01T12:29:07.341Z,4.80
2017-08-01T12:31:35.002Z,5.30
2017-08-01T12:34:02.540Z,4.70
2017-08-01T12:36:30.825Z,5.23
2017-08-01T12:38:58.345Z,4.20
2017-08-01T12:41:25.975Z,4.50
2017-08-01T12:43:53.632Z,4.57
2017-08-01T12:46:21.159Z,5.57
2017-08-01T12:48:49.485Z,4.53
2017-08-01T12:51:16.997Z,4.27
2017-08-01T12:53:45.284Z,4.87
2017-08-01T12:56:12.842Z,4.10
2017-08-01T12:58:40.361Z,3.57
2017-08-01T13:01:07.885Z,4.90
2017-08-01T13:03:35.404Z,3.97
2017-08-01T13:06:03.706Z,4.53
2017-08-01T13:08:31.259Z,4.40
2017-08-01T13:10:58.794Z,4.60
2017-08-01T13:13:27.084Z,4.27
2017-08-01T13:15:54.614Z,4.40
2017-08-01T13:18:22.229Z,3.70
2017-08-01T13:20:49.770Z,5.30
2017-08-01T13:23:17.287Z,4.70
2017-08-01T13:25:44.805Z,4.50
2017-08-01T13:28:12.323Z,4.17
2017-08-01T13:30:40.609Z,4.50
2017-08-01T13:33:08.162Z,4.23
2017-08-01T13:35:36.614Z,4.50
2017-08-01T13:38:04.147Z,4.00
2017-08-01T13:40:31.682Z,5.57
2017-08-01T13:42:59.341Z,5.17
2017-08-01T13:45:26.990Z,3.80
2017-08-01T13:47:54.782Z,4.27
2017-08-01T13:50:22.444Z,4.10
2017-08-01T13:52:49.985Z,4.47
2017-08-01T13:55:17.663Z,4.23
2017-08-01T13:57:45.202Z,3.27
2017-08-01T14:00:12.735Z,4.28
2017-08-01T14:02:41.017Z,4.23
2017-08-01T14:05:09.306Z,3.90
2017-08-01T14:07:36.849Z,3.87
2017-08-01T14:10:05.163Z,3.70
2017-08-01T14:12:32.691Z,4.00
2017-08-01T14:15:00.322Z,3.80
2017-08-01T14:17:28.022Z,4.05
2017-08-01T14:19:55.613Z,5.45
2017-08-01T14:22:23.226Z,4.03
2017-08-01T14:24:51.689Z,4.60
2017-08-01T14:27:20.439Z,4.30
2017-08-01T14:29:48.101Z,5.00
2017-08-01T14:32:15.791Z,5.00
2017-08-01T14:34:43.734Z,4.57
2017-08-01T14:37:11.370Z,3.97
2017-08-01T14:39:38.892Z,4.28
2017-08-01T14:42:06.518Z,4.32
2017-08-01T14:44:34.163Z,4.28
2017-08-01T14:47:01.835Z,3.58
2017-08-01T14:49:29.497Z,4.40
2017-08-01T14:51:57.053Z,3.50
2017-08-01T14:54:24.572Z,3.55
2017-08-01T14:56:52.861Z,4.03
2017-08-01T14:59:20.402Z,4.40
2017-08-01T15:01:48.681Z,4.32
2017-08-01T15:04:16.966Z,4.18
2017-08-01T15:06:45.249Z,3.50
2017-08-01T15:09:12.765Z,3.85
2017-08-01T15:11:40.312Z,4.55
2017-08-01T15:14:07.831Z,3.85
2017-08-01T15:16:35.362Z,5.05
2017-08-01T15:19:03.653Z,3.70
2017-08-01T15:21:31.942Z,4.60
2017-08-01T15:23:59.487Z,4.20
2017-08-01T15:26:27.769Z,4.30
2017-08-01T15:28:55.290Z,5.00
2017-08-01T15:31:22.812Z,4.50
2017-08-01T15:33:50.341Z,4.37
2017-08-01T15:36:17.889Z,3.90
2017-08-01T15:38:46.173Z,4.28
2017-08-01T15:41:14.459Z,4.40
2017-08-01T15:43:41.982Z,4.45
2017-08-01T15:46:09.510Z,4.32
2017-08-01T15:48:37.054Z,4.37
2017-08-01T15:51:04.574Z,4.82
2017-08-01T15:53:32.857Z,5.05
2017-08-01T15:56:01.146Z,4.43
2017-08-01T15:58:28.680Z,4.80
2017-08-01T16:00:57.006Z,4.72
2017-08-01T16:03:24.534Z,4.90
2017-08-01T16:05:52.813Z,4.60
2017-08-01T16:08:20.337Z,5.15
2017-08-01T16:10:47.857Z,5.10
2017-08-01T16:13:15.398Z,4.68
2017-08-01T16:15:42.923Z,4.95
2017-08-01T16:18:10.434Z,5.37
2017-08-01T16:20:37.954Z,5.28
2017-08-01T16:23:06.269Z,5.07
2017-08-01T16:25:33.809Z,5.50
2017-08-01T16:28:01.326Z,5.20
2017-08-01T16:30:28.845Z,6.10
2017-08-01T16:32:56.362Z,5.57
2017-08-01T16:35:24.653Z,5.60
2017-08-01T16:37:52.218Z,5.70
2017-08-01T16:40:19.737Z,6.00
2017-08-01T16:42:47.264Z,6.00
2017-08-01T16:45:14.781Z,5.87
2017-08-01T16:47:43.070Z,6.80
2017-08-01T16:50:10.623Z,6.40
2017-08-01T16:52:38.145Z,6.20
2017-08-01T16:55:05.687Z,6.10
2017-08-01T16:57:33.214Z,6.20
2017-08-01T17:00:00.734Z,6.40
2017-08-01T17:02:29.073Z,6.00
2017-08-01T17:04:56.616Z,8.07
2017-08-01T17:07:24.140Z,6.07
2017-08-01T17:09:52.421Z,6.43
2017-08-01T17:12:19.947Z,6.17
2017-08-01T17:14:47.568Z,5.63
2017-08-01T17:17:15.093Z,7.47
2017-08-01T17:19:43.381Z,11.63
2017-08-01T17:22:10.917Z,6.57
2017-08-01T17:24:39.210Z,6.87
2017-08-01T17:27:06.786Z,7.87
2017-08-01T17:29:34.306Z,7.20
2017-08-01T17:32:01.825Z,7.77
2017-08-01T17:34:29.367Z,8.10
2017-08-01T17:36:56.901Z,7.27
2017-08-01T17:39:24.441Z,8.30
2017-08-01T17:41:52.733Z,10.27
2017-08-01T17:44:21.022Z,8.00
2017-08-01T17:46:48.569Z,7.83
2017-08-01T17:49:16.881Z,7.63
2017-08-01T17:51:44.424Z,7.43
2017-08-01T17:54:11.946Z,7.20
2017-08-01T17:56:40.245Z,8.00
2017-08-01T17:59:07.761Z,8.40
2017-08-01T18:01:35.278Z,9.60
2017-08-01T18:04:02.862Z,8.50
2017-08-01T18:06:30.405Z,7.87
2017-08-01T18:08:57.938Z,12.50
2017-08-01T18:11:25.466Z,9.10
2017-08-01T18:13:52.987Z,8.00
2017-08-01T18:16:20.553Z,8.13
2017-08-01T18:18:48.077Z,8.63
2017-08-01T18:21:15.601Z,9.70
2017-08-01T18:23:43.126Z,9.80
2017-08-01T18:26:10.649Z,11.07
2017-08-01T18:28:38.226Z,9.80
2017-08-01T18:31:05.750Z,8.90
2017-08-01T18:33:34.034Z,8.00
2017-08-01T18:36:02.314Z,7.37
2017-08-01T18:38:29.904Z,7.80
2017-08-01T18:40:57.568Z,7.67
2017-08-01T18:43:25.232Z,7.40
2017-08-01T18:45:52.759Z,8.90
2017-08-01T18:48:20.377Z,7.83
2017-08-01T18:50:49.134Z,8.53
2017-08-01T18:53:16.995Z,8.43
2017-08-01T18:55:44.669Z,8.57
2017-08-01T18:58:12.194Z,8.23
2017-08-01T19:00:39.974Z,8.60
2017-08-01T19:03:07.647Z,13.57
2017-08-01T19:05:35.360Z,13.07
2017-08-01T19:08:03.651Z,9.37
2017-08-01T19:10:32.067Z,11.90
2017-08-01T19:12:59.602Z,11.70
2017-08-01T19:15:27.295Z,11.40
2017-08-01T19:17:54.991Z,9.93
2017-08-01T19:20:23.295Z,10.50
2017-08-01T19:22:51.084Z,10.43
2017-08-01T19:25:19.181Z,11.70
2017-08-01T19:27:46.746Z,9.60
2017-08-01T19:30:14.484Z,10.47
2017-08-01T19:32:42.156Z,9.83
2017-08-01T19:35:09.723Z,10.40
2017-08-01T19:37:38.308Z,9.87
2017-08-01T19:40:05.849Z,11.57
2017-08-01T19:42:33.405Z,9.83
2017-08-01T19:45:01.183Z,9.97
2017-08-01T19:47:28.946Z,10.50
2017-08-01T19:49:56.626Z,10.00
2017-08-01T19:52:24.158Z,10.40
2017-08-01T19:54:51.786Z,9.20
2017-08-01T19:57:20.277Z,9.60
2017-08-01T19:59:47.991Z,10.17
2017-08-01T20:02:15.619Z,10.20
2017-08-01T20:04:43.158Z,9.57
2017-08-01T20:07:11.373Z,9.13
2017-08-01T20:09:39.118Z,10.17
2017-08-01T20:12:06.830Z,10.70
2017-08-01T20:14:35.147Z,10.27
2017-08-01T20:17:02.701Z,10.50
2017-08-01T20:19:30.306Z,9.53
2017-08-01T20:21:58.670Z,10.20
2017-08-01T20:24:26.393Z,10.07
2017-08-01T20:26:54.026Z,10.30
2017-08-01T20:29:21.687Z,10.80
2017-08-01T20:31:49.247Z,10.03
2017-08-01T20:34:17.057Z,10.00
2017-08-01T20:36:44.726Z,10.33
2017-08-01T20:39:12.283Z,10.43
2017-08-01T20:41:39.805Z,10.70
2017-08-01T20:44:08.094Z,9.27
2017-08-01T20:46:35.625Z,9.87
2017-08-01T20:49:03.930Z,11.03
2017-08-01T20:51:31.449Z,9.97
2017-08-01T20:53:58.998Z,10.83
2017-08-01T20:56:26.528Z,10.67
2017-08-01T20:58:54.054Z,9.40
2017-08-01T21:01:22.372Z,10.60
2017-08-01T21:03:49.897Z,12.20
2017-08-01T21:06:17.429Z,10.57
2017-08-01T21:08:44.978Z,10.17
2017-08-01T21:11:12.501Z,10.33
2017-08-01T21:13:40.027Z,10.30
2017-08-01T21:16:08.347Z,10.73
2017-08-01T21:18:35.871Z,11.07
2017-08-01T21:21:03.393Z,10.93
2017-08-01T21:23:30.942Z,10.87
2017-08-01T21:25:58.468Z,10.57
2017-08-01T21:28:25.994Z,10.87
2017-08-01T21:30:54.291Z,10.90
2017-08-01T21:33:21.810Z,11.53
2017-08-01T21:35:49.370Z,10.23
2017-08-01T21:38:16.894Z,10.83
2017-08-01T21:40:44.417Z,11.20
2017-08-01T21:43:11.937Z,11.17
2017-08-01T21:45:39.454Z,10.97
2017-08-01T21:48:07.009Z,10.77
2017-08-01T21:50:34.553Z,10.23
2017-08-01T21:53:02.074Z,10.50
2017-08-01T21:55:29.606Z,11.63
2017-08-01T21:57:57.126Z,10.93
2017-08-01T22:00:24.690Z,10.97
2017-08-01T22:02:52.204Z,11.40
2017-08-01T22:05:19.757Z,11.37
2017-08-01T22:07:47.909Z,11.40
2017-08-01T22:10:15.432Z,11.07
2017-08-01T22:12:42.972Z,11.60
2017-08-01T22:15:11.368Z,11.20
2017-08-01T22:17:38.889Z,11.50
2017-08-01T22:20:06.397Z,10.87
2017-08-01T22:22:33.951Z,11.90
2017-08-01T22:25:01.505Z,11.90
2017-08-01T22:27:29.029Z,12.03
2017-08-01T22:29:56.554Z,12.37
2017-08-01T22:32:24.297Z,11.83
2017-08-01T22:34:51.817Z,11.40
2017-08-01T22:37:20.120Z,12.10
2017-08-01T22:39:47.636Z,12.00
2017-08-01T22:42:15.150Z,12.77
2017-08-01T22:44:42.680Z,11.17
2017-08-01T22:47:10.964Z,10.70
2017-08-01T22:49:38.500Z,13.17
2017-08-01T22:52:06.016Z,13.20
2017-08-01T22:54:33.524Z,11.70
2017-08-01T22:57:01.804Z,12.00
2017-08-01T22:59:30.079Z,12.27
2017-08-01T23:01:58.394Z,13.13
2017-08-01T23:04:25.909Z,12.67
2017-08-01T23:06:54.199Z,13.50
2017-08-01T23:09:22.489Z,12.50
2017-08-01T23:11:50.006Z,12.87
2017-08-01T23:14:17.544Z,13.67
2017-08-01T23:16:45.051Z,12.63
2017-08-01T23:19:12.564Z,13.23
2017-08-01T23:21:40.084Z,13.00
2017-08-01T23:24:07.596Z,13.80
2017-08-01T23:26:35.145Z,12.77
2017-08-01T23:29:02.669Z,14.37
2017-08-01T23:31:30.197Z,13.90
2017-08-01T23:33:58.491Z,13.07
2017-08-01T23:36:26.011Z,12.60
2017-08-01T23:38:53.561Z,13.30
2017-08-01T23:41:21.085Z,13.83
2017-08-01T23:43:48.608Z,13.97
2017-08-01T23:46:16.893Z,16.43
2017-08-01T23:48:44.427Z,13.10
2017-08-01T23:51:12.746Z,12.70
2017-08-01T23:53:40.270Z,13.40
2017-08-01T23:56:08.561Z,10.93
2017-08-01T23:58:36.082Z,9.83
